Gooik, Belgium
Current Conditions -  °F | °C
As of 6:25 AM on Sunday 26 Oct 2014 (Local Time) from EBCV Reporting Station
Broken Clouds Broken Clouds  
Wind Chill: 54°   Ceiling: 4000
Heat Index: 54°   Visibility: 6mi
Dew Point: 50°   Wind: 8mph
Humidity: 88%   Direction: 180°S
Pressure: 30.24"   Gusts: NA
Location:  50.79°N, 4.11°E
Report Text: EBCV 260425Z AUTO 18007KT 9999 BKN040/// 12/10 Q1024 BLU
Loading
Personal Weather Stations






























Interactive Weather Map New forecast layout! Learn more

10-Day Weather Forecast

Advertisements
Track Severe Weather on mobile